createdAt,value
2023-01-30T00:01:16.441Z,89.74
2023-01-30T00:04:01.530Z,89.63
2023-01-30T00:06:46.736Z,89.69
2023-01-30T00:09:31.720Z,89.68
2023-01-30T00:12:16.861Z,89.67
2023-01-30T00:15:02.398Z,89.67
2023-01-30T00:17:47.650Z,89.49
2023-01-30T00:20:33.679Z,89.33
2023-01-30T00:23:18.963Z,89.18
2023-01-30T00:26:27.009Z,89.03
2023-01-30T00:29:13.444Z,89.05
2023-01-30T00:32:00.218Z,89.14
2023-01-30T00:34:46.986Z,89.07
2023-01-30T00:37:33.654Z,88.92
2023-01-30T00:40:20.716Z,88.66
2023-01-30T00:43:26.113Z,88.64
2023-01-30T00:46:46.071Z,88.74
2023-01-30T00:49:33.548Z,89.07
2023-01-30T00:52:20.156Z,89.31
2023-01-30T00:55:07.651Z,89.63
2023-01-30T00:57:53.978Z,89.90
2023-01-30T01:00:40.724Z,89.97
2023-01-30T01:03:36.166Z,90.19
2023-01-30T01:07:31.421Z,90.33
2023-01-30T01:10:18.301Z,90.20
2023-01-30T01:13:07.021Z,90.06
2023-01-30T01:16:06.294Z,89.92
2023-01-30T01:18:53.905Z,89.93
2023-01-30T01:21:51.317Z,90.01
2023-01-30T01:24:37.953Z,90.04
2023-01-30T01:27:24.860Z,89.88
2023-01-30T01:30:12.480Z,89.52
2023-01-30T01:32:58.956Z,89.42
2023-01-30T01:35:47.690Z,89.33
2023-01-30T01:38:34.407Z,89.06
2023-01-30T01:41:20.969Z,88.97
2023-01-30T01:46:08.521Z,88.53
2023-01-30T01:50:27.053Z,88.54
2023-01-30T01:53:47.392Z,88.54
2023-01-30T01:57:51.425Z,88.37
2023-01-30T02:02:10.443Z,88.10
2023-01-30T02:05:52.454Z,88.18
2023-01-30T02:09:00.707Z,88.11
2023-01-30T02:13:00.609Z,87.95
2023-01-30T02:16:59.979Z,87.89
2023-01-30T02:20:02.025Z,87.71
2023-01-30T02:23:06.834Z,87.68
2023-01-30T02:26:25.623Z,87.54
2023-01-30T02:29:41.314Z,87.45
2023-01-30T02:34:23.289Z,87.38
2023-01-30T02:38:03.217Z,87.30
2023-01-30T02:41:41.930Z,87.44
2023-01-30T02:45:01.674Z,87.37
2023-01-30T02:50:12.882Z,87.46
2023-01-30T02:54:19.381Z,87.17
2023-01-30T02:58:12.904Z,86.61
2023-01-30T03:02:45.374Z,86.40
2023-01-30T03:06:04.504Z,86.20
2023-01-30T03:10:05.745Z,85.95
2023-01-30T03:14:23.697Z,85.41
2023-01-30T03:18:20.403Z,85.44
2023-01-30T03:22:17.410Z,85.36
2023-01-30T03:26:36.049Z,85.43
2023-01-30T03:30:34.091Z,85.39
2023-01-30T03:34:31.273Z,85.62
2023-01-30T03:37:18.280Z,86.01
2023-01-30T03:40:05.509Z,86.36
2023-01-30T03:42:52.252Z,86.77
2023-01-30T03:45:38.689Z,87.00
2023-01-30T03:48:25.397Z,87.32
2023-01-30T03:51:15.556Z,87.57
2023-01-30T03:54:02.401Z,87.90
2023-01-30T03:56:49.140Z,88.19
2023-01-30T03:59:37.618Z,88.42
2023-01-30T04:02:26.248Z,88.64
2023-01-30T04:05:13.055Z,88.90
2023-01-30T04:07:59.991Z,88.93
2023-01-30T04:10:48.035Z,88.86
2023-01-30T04:13:34.743Z,88.85
2023-01-30T04:16:24.157Z,88.76
2023-01-30T04:19:10.826Z,88.61
2023-01-30T04:21:57.475Z,88.33
2023-01-30T04:24:44.223Z,88.24
2023-01-30T04:27:30.888Z,88.19
2023-01-30T04:30:17.869Z,87.65
2023-01-30T04:33:04.411Z,87.50
2023-01-30T04:35:56.062Z,87.32
2023-01-30T04:38:43.364Z,87.42
2023-01-30T04:41:30.004Z,87.61
2023-01-30T04:44:18.844Z,87.63
2023-01-30T04:47:05.577Z,87.75
2023-01-30T04:49:52.017Z,87.53
2023-01-30T04:52:39.909Z,87.01
2023-01-30T04:56:09.521Z,86.63
2023-01-30T05:00:05.868Z,85.88
2023-01-30T05:04:03.512Z,85.75
2023-01-30T05:08:01.705Z,85.41
2023-01-30T05:11:57.923Z,84.86
2023-01-30T05:15:54.547Z,84.81
2023-01-30T05:18:41.587Z,84.81
2023-01-30T05:21:29.970Z,84.53
2023-01-30T05:24:34.215Z,84.64
2023-01-30T05:27:21.243Z,84.56
2023-01-30T05:32:40.601Z,84.15
2023-01-30T05:36:38.217Z,84.46
2023-01-30T05:40:38.359Z,84.68
2023-01-30T05:44:13.149Z,84.78
2023-01-30T05:48:15.780Z,84.67
2023-01-30T05:52:13.933Z,84.73
2023-01-30T05:56:11.874Z,84.58
2023-01-30T06:10:38.227Z,83.52
2023-01-30T06:13:47.017Z,83.33
2023-01-30T06:17:43.789Z,83.62
2023-01-30T06:21:09.520Z,83.78
2023-01-30T06:24:28.052Z,83.88
2023-01-30T06:28:26.253Z,83.80
2023-01-30T06:31:13.454Z,83.73
2023-01-30T06:34:00.812Z,83.64
2023-01-30T06:36:47.584Z,83.64
2023-01-30T06:55:52.063Z,81.76
2023-01-30T07:09:38.525Z,80.96
2023-01-30T07:12:32.937Z,80.71
2023-01-30T07:16:49.453Z,80.74
2023-01-30T07:19:34.523Z,80.60
2023-01-30T07:22:23.303Z,80.40
2023-01-30T07:25:08.982Z,80.19
2023-01-30T07:27:59.181Z,80.47
2023-01-30T07:30:27.736Z,80.50
2023-01-30T07:33:13.358Z,80.81
2023-01-30T07:35:58.612Z,81.50
2023-01-30T07:40:39.415Z,81.74
2023-01-30T07:43:25.801Z,81.79
2023-01-30T07:46:14.547Z,82.23
2023-01-30T07:49:02.320Z,82.62
2023-01-30T07:51:49.027Z,82.89
2023-01-30T07:54:35.646Z,83.21
2023-01-30T07:57:33.254Z,83.32
2023-01-30T08:01:28.279Z,83.63
2023-01-30T08:05:31.370Z,84.53
2023-01-30T08:09:26.541Z,85.49
2023-01-30T08:12:13.773Z,85.59
2023-01-30T08:15:01.029Z,86.15
2023-01-30T08:17:56.970Z,86.58
2023-01-30T08:20:43.657Z,86.85
2023-01-30T08:24:38.744Z,87.32
2023-01-30T08:34:43.299Z,87.68
2023-01-30T08:38:40.619Z,87.86
2023-01-30T08:41:28.474Z,88.20
2023-01-30T08:44:15.415Z,88.23
2023-01-30T08:47:02.197Z,88.41
2023-01-30T08:49:59.671Z,88.50
2023-01-30T08:52:57.798Z,88.90
2023-01-30T08:55:45.438Z,89.02
2023-01-30T08:58:43.968Z,89.06
2023-01-30T09:01:30.530Z,88.84
2023-01-30T09:04:19.943Z,88.95
2023-01-30T09:07:22.582Z,88.93
2023-01-30T09:10:09.901Z,89.02
2023-01-30T09:12:56.769Z,89.08
2023-01-30T09:15:44.312Z,89.00
2023-01-30T09:18:31.336Z,89.00
2023-01-30T09:32:16.340Z,88.80
2023-01-30T09:35:19.200Z,88.83
2023-01-30T09:38:05.924Z,89.42
2023-01-30T09:41:18.491Z,89.45
2023-01-30T09:44:31.107Z,89.21
2023-01-30T09:47:42.612Z,89.33
2023-01-30T09:50:57.985Z,88.83
2023-01-30T09:54:03.651Z,89.09
2023-01-30T09:56:58.485Z,89.16
2023-01-30T09:59:54.896Z,88.91
2023-01-30T10:02:52.319Z,88.82
2023-01-30T10:05:48.483Z,88.93
2023-01-30T10:08:58.117Z,89.39
2023-01-30T10:12:13.998Z,89.51
2023-01-30T10:15:34.951Z,89.47
2023-01-30T10:18:47.916Z,89.38
2023-01-30T10:21:56.390Z,89.60
2023-01-30T10:25:15.449Z,89.56
2023-01-30T10:28:26.968Z,89.69
2023-01-30T10:31:28.310Z,89.75
2023-01-30T10:35:34.374Z,90.01
2023-01-30T10:40:01.984Z,90.01
2023-01-30T10:43:51.130Z,90.50
2023-01-30T10:48:26.548Z,90.77
2023-01-30T10:51:46.264Z,90.82
2023-01-30T10:56:09.342Z,90.94
2023-01-30T10:59:20.342Z,91.07
2023-01-30T11:02:31.018Z,90.93
2023-01-30T11:05:38.808Z,91.22
2023-01-30T11:08:27.174Z,91.50
2023-01-30T11:12:00.305Z,91.52
2023-01-30T11:15:58.514Z,91.38
2023-01-30T11:19:18.931Z,91.53
2023-01-30T11:22:02.888Z,91.47
2023-01-30T11:24:49.602Z,91.25
2023-01-30T11:27:37.456Z,91.07
2023-01-30T11:30:30.301Z,91.04
2023-01-30T11:33:18.281Z,91.07
2023-01-30T11:36:07.388Z,91.09
2023-01-30T11:39:05.143Z,91.00
2023-01-30T11:42:04.910Z,90.85
2023-01-30T11:56:54.714Z,89.27
2023-01-30T12:00:04.909Z,89.51
2023-01-30T12:03:30.503Z,89.67
2023-01-30T12:06:23.403Z,89.87
2023-01-30T12:09:32.346Z,90.21
2023-01-30T12:12:58.277Z,90.14
2023-01-30T12:15:48.396Z,90.09
2023-01-30T12:20:28.553Z,90.30
2023-01-30T12:25:18.530Z,90.80
2023-01-30T12:33:59.220Z,90.95
2023-01-30T12:38:00.741Z,91.18
2023-01-30T12:42:39.988Z,91.24
2023-01-30T12:46:11.070Z,91.26
2023-01-30T12:49:25.122Z,91.19
2023-01-30T12:52:45.817Z,90.99
2023-01-30T12:55:38.796Z,90.70
2023-01-30T12:58:46.927Z,90.79
2023-01-30T13:02:58.232Z,90.84
2023-01-30T13:07:30.258Z,90.81
2023-01-30T13:10:54.351Z,90.92
2023-01-30T13:15:11.312Z,91.00
2023-01-30T13:19:21.124Z,90.97
2023-01-30T13:22:54.486Z,91.22
2023-01-30T13:26:04.002Z,91.21
2023-01-30T13:29:05.887Z,91.26
2023-01-30T13:31:57.258Z,91.34
2023-01-30T13:34:48.024Z,91.40
2023-01-30T13:37:38.977Z,91.43
2023-01-30T13:40:29.653Z,91.45
2023-01-30T13:43:25.763Z,91.61
2023-01-30T13:46:54.345Z,91.80
2023-01-30T13:51:01.958Z,91.82
2023-01-30T13:53:53.852Z,91.98
2023-01-30T13:56:57.837Z,91.97
2023-01-30T14:00:31.538Z,91.95
2023-01-30T14:03:30.343Z,92.23
2023-01-30T14:06:33.708Z,92.22
2023-01-30T14:09:29.379Z,92.26
2023-01-30T14:12:23.658Z,92.24
2023-01-30T14:15:16.637Z,92.05
2023-01-30T14:18:23.422Z,91.87
2023-01-30T14:21:24.557Z,91.72
2023-01-30T14:26:53.369Z,91.59
2023-01-30T14:30:53.497Z,91.30
2023-01-30T14:33:51.243Z,91.37
2023-01-30T14:36:47.612Z,91.47
2023-01-30T14:39:41.088Z,91.34
2023-01-30T14:45:17.899Z,91.13
2023-01-30T14:49:26.673Z,91.16
2023-01-30T14:53:25.420Z,91.09
2023-01-30T14:57:32.954Z,91.08
2023-01-30T15:02:13.023Z,91.06
2023-01-30T15:06:11.019Z,90.97
2023-01-30T15:10:24.551Z,90.83
2023-01-30T15:14:29.981Z,91.00
2023-01-30T15:17:33.185Z,90.99
2023-01-30T15:21:19.555Z,91.03
2023-01-30T15:24:40.581Z,91.13
2023-01-30T15:29:05.727Z,91.01
2023-01-30T15:33:30.433Z,91.07
2023-01-30T15:47:21.838Z,90.25
2023-01-30T15:50:36.504Z,89.92
2023-01-30T15:53:57.920Z,90.03
2023-01-30T16:08:29.139Z,89.48
2023-01-30T16:27:18.553Z,88.71
2023-01-30T16:40:49.808Z,87.77
2023-01-30T16:43:45.737Z,87.89
2023-01-30T16:48:17.118Z,88.01
2023-01-30T16:53:09.291Z,88.17
2023-01-30T16:57:04.918Z,88.41
2023-01-30T17:01:40.107Z,88.07
2023-01-30T17:04:43.865Z,88.16
2023-01-30T17:18:51.747Z,87.66
2023-01-30T17:21:51.668Z,87.84
2023-01-30T17:26:44.783Z,88.14
2023-01-30T17:30:42.239Z,88.59
2023-01-30T17:34:52.709Z,88.71
2023-01-30T17:38:24.387Z,88.52
2023-01-30T17:52:43.877Z,87.55
2023-01-30T18:47:46.501Z,86.42
2023-01-30T18:50:49.053Z,86.47
2023-01-30T18:54:23.301Z,86.17
2023-01-30T18:59:15.971Z,86.18
2023-01-30T19:13:04.681Z,86.13
2023-01-30T19:16:04.750Z,86.20
2023-01-30T19:19:39.635Z,86.32
2023-01-30T19:24:59.124Z,86.51
2023-01-30T19:38:53.178Z,86.65
2023-01-30T19:41:55.493Z,86.85
2023-01-30T19:45:35.116Z,87.06
2023-01-30T19:49:07.621Z,87.11
2023-01-30T20:03:59.012Z,87.94
2023-01-30T20:07:00.157Z,88.30
2023-01-30T20:35:10.651Z,88.92
2023-01-30T21:03:12.444Z,88.46
2023-01-30T22:13:41.705Z,88.49
2023-01-30T22:16:58.162Z,88.75
2023-01-30T22:31:16.824Z,88.53
2023-01-30T22:34:11.538Z,88.33
2023-01-30T22:38:06.838Z,88.49
